METAR Data
IDs: Format: Raw Decoded Include TAF

Data at: 0254 UTC 18 Jun 2019

PAOH 180245Z AUTO 00000KT 7SM RA SCT007 OVC023 12/12 A2978 RMK AO2 P0001
PAOH 180224Z AUTO 00000KT 10SM -RA BKN007 OVC023 12/12 A2977 RMK AO2 P0001
PAOH 180215Z AUTO 00000KT 10SM -RA SCT007 OVC023 12/12 A2977 RMK AO2 P0000
PAOH 180156Z AUTO 00000KT 10SM -RA OVC023 13/12 A2977 RMK AO2 SLP081 P0002 T01280117
PAOH 180056Z AUTO 26004KT 10SM -RA FEW017 OVC027 13/11 A2977 RMK AO2 SLP082 T01280106
PAOH 172356Z AUTO 00000KT 7SM RA OVC019 12/11 A2978 RMK AO2 SLP085 P0002 60010 T01220111 10133 20117 58003
PAOH 172338Z AUTO 00000KT 7SM -RA FEW007 OVC017 13/11 A2978 RMK AO2 P0001
PAOH 172256Z AUTO 00000KT 10SM -RA SCT007 BKN014 OVC019 13/12 A2978 RMK AO2 SLP086 P0003 T01280117
PAOH 172220Z AUTO 24003KT 10SM -RA FEW005 BKN027 OVC039 13/12 A2979 RMK AO2 P0001
PAOH 172156Z AUTO 22003KT 10SM RA BKN027 OVC041 12/11 A2979 RMK AO2 RAE08B46 SLP088 P0001 T01220111
PAOH 172106Z AUTO 27006KT 10SM -RA SCT004 BKN026 OVC031 13/12 A2979 RMK AO2 P0000
PAOH 172056Z AUTO VRB03KT 10SM -RA OVC026 12/12 A2979 RMK AO2 SLP088 P0001 60004 T01220117 51002
PAOH 171956Z AUTO 24004KT 7SM -RA FEW003 OVC026 13/12 A2979 RMK AO2 SLP088 P0002 T01280122
PAOH 171856Z AUTO 28005KT 10SM -RA OVC021 13/11 A2979 RMK AO2 RAB11 SLP089 P0001 T01280111
PAOH 171756Z AUTO 00000KT 10SM BKN015 OVC024 13/12 A2979 RMK AO2 RAE03 SLP087 P0001 60007 T01330117 10139 20122 55000
PAOH 171741Z AUTO 26003KT 10SM BKN024 BKN037 OVC047 13/12 A2979 RMK AO2 RAE03 P0001
PAOH 171707Z AUTO 33003KT 10SM SCT019 BKN041 OVC050 13/12 A2979 RMK AO2 RAE03 P0000
PAOH 171656Z AUTO 00000KT 10SM -RA BKN021 BKN028 OVC041 13/12 A2978 RMK AO2 RAE11B30 SLP086 P0001 T01330122
PAOH 171556Z AUTO VRB03KT 6SM -RA BR BKN023 OVC034 12/12 A2978 RMK AO2 RAB31 SLP086 P0002 T01220117
PAOH 171456Z AUTO 00000KT 10SM FEW003 BKN021 OVC034 12/12 A2979 RMK AO2 RAB22E40 SLP087 P0001 60003 T01220122 56000
PAOH 171451Z AUTO 00000KT 10SM BKN021 OVC034 12/12 A2979 RMK AO2 RAB22E40 P0001
PAOH 171408Z AUTO 00000KT 10SM SCT018 BKN030 BKN045 12/12 A2978 RMK AO2
PAOH 171356Z AUTO 00000KT 10SM FEW002 BKN018 OVC028 12/12 A2978 RMK AO2 SLP086 P0001 T01220122
PAOH 171345Z AUTO 00000KT 10SM FEW002 BKN018 OVC030 12/12 A2979 RMK AO2 P0001
PAOH 171332Z AUTO 00000KT 10SM FEW002 OVC030 12/12 A2979 RMK AO2 P0001
PAOH 171330Z AUTO 25003KT 10SM FEW018 OVC031 12/12 A2979 RMK AO2 P0001
PAOH 171317Z AUTO 00000KT 10SM FEW003 BKN029 OVC034 12/12 A2979 RMK AO2
PAOH 171256Z AUTO 00000KT 10SM SCT028 BKN060 OVC120 12/12 A2979 RMK AO2 RAE23 SLP087 P0001 T01220117
PAOH 171214Z AUTO 00000KT 10SM -RA FEW018 BKN039 OVC060 12/12 A2979 RMK AO2 P0000
PAOH 171156Z AUTO 00000KT 4SM RA BR FEW007 BKN021 OVC032 12/12 A2979 RMK AO2 SLP087 P0002 6//// 7//// T01220122 10133 20122 55004
PAOH 171145Z AUTO 29003KT 5SM -RA BR FEW005 BKN015 OVC021 12/12 A2979 RMK AO2 P0001
PAOH 171056Z AUTO 10005KT 6SM -RA BR BKN021 OVC027 13/12 A2978 RMK AO2 SLP085 P0001 T01280122
PAOH 170956Z AUTO 08008KT 10SM -RA BKN026 13/12 A2979 RMK AO2 SLP087 P0002 T01280122
PAOH 170916Z AUTO 07010KT 10SM -RA SCT007 BKN028 OVC090 13/12 A2979 RMK AO2 CIG 024V043 P0001
PAOH 170856Z AUTO 08011KT 10SM -RA BKN007 OVC028 13/12 A2980 RMK AO2 CIG 004V012 SLP092 6//// T01280122 56009
PAOH 170851Z AUTO 08011KT 10SM -RA BKN007 OVC028 13/12 A2980 RMK AO2 CIG 004V012
PAOH 170833Z AUTO 09010KT 10SM RA FEW009 OVC028 13/12 A2980 RMK AO2
PAOH 170804Z AUTO 08010KT 10SM RA FEW011 BKN026 OVC070 13/12 A2981 RMK AO2 P0000
PAOH 170756Z AUTO 08008KT 10SM RA FEW014 BKN030 OVC070 13/12 A2982 RMK AO2 SLP097 P0002 T01280122 401670111
PAOH 170748Z AUTO 08009KT 10SM RA FEW012 BKN028 OVC075 13/12 A2982 RMK AO2 P0002
PAOH 170656Z AUTO 09010KT 10SM -RA BKN032 BKN048 OVC075 13/12 A2983 RMK AO2 SLP101 P0002 T01280122
PAOH 170614Z AUTO 08008KT 10SM -RA FEW026 OVC031 13/12 A2984 RMK AO2 P0000
PAOH 170556Z AUTO 08008KT 10SM -RA OVC028 13/12 A2984 RMK AO2 SLP106 P0002 60002 T01330122 10167 20133 58018
PAOH 170456Z AUTO 09008KT 10SM -RA OVC026 14/12 A2986 RMK AO2 RAE00B31 SLP112 P0000 T01390122
PAOH 170356Z AUTO 08008KT 10SM -RA OVC026 14/12 A2988 RMK AO2 RAB01 SLP118 P0000 T01390117
PAOH 170256Z AUTO 08010KT 10SM OVC026 14/12 A2990 RMK AO2 SLP124 T01440117 58013
PAOH 170234Z AUTO 07007KT 10SM OVC028 14/12 A2990 RMK AO2
PAOH 170156Z AUTO 08006KT 10SM OVC031 15/11 A2991 RMK AO2 SLP129 T01500111
PAOH 170056Z AUTO 09006KT 10SM FEW031 OVC065 16/11 A2992 RMK AO2 SLP132 T01610106
PAOH 162356Z AUTO 09008G14KT 10SM BKN034 OVC070 16/11 A2993 RMK AO2 SLP137 60000 T01610111 10161 20133 58010
PAOH 162256Z AUTO 07007KT 10SM SCT029 BKN039 OVC100 15/12 A2995 RMK AO2 SLP142 T01500117
PAOH 162156Z AUTO 09010KT 10SM SCT029 BKN039 OVC060 14/12 A2996 RMK AO2 SLP146 T01440117
PAOH 162056Z AUTO 08008KT 10SM SCT027 BKN041 OVC050 14/12 A2996 RMK AO2 SLP147 60000 T01440117 56001
PAOH 162034Z AUTO 08007KT 10SM FEW019 BKN035 OVC050 14/12 A2997 RMK AO2
PAOH 161956Z AUTO 07009G16KT 10SM OVC024 14/11 A2996 RMK AO2 SLP147 T01390111
PAOH 161856Z AUTO 07007KT 10SM BKN028 OVC055 14/11 A2996 RMK AO2 RAB04E21 SLP147 P0000 T01440111
PAOH 161821Z AUTO 07005KT 10SM FEW024 OVC029 14/12 A2997 RMK AO2 RAB04E21 P0000
PAOH 161812Z AUTO 00000KT 10SM -RA BKN031 OVC070 14/12 A2997 RMK AO2 RAB04 P0000
PAOH 161756Z AUTO 09005KT 10SM BKN028 OVC080 14/11 A2997 RMK AO2 SLP148 T01440111 10144 20111 55001
PAOH 161719Z AUTO 09005KT 10SM BKN026 OVC075 14/11 A2997 RMK AO2
PAOH 161656Z AUTO 08005KT 10SM FEW026 BKN044 OVC080 13/11 A2997 RMK AO2 SLP147 T01330111
PAOH 161636Z AUTO 09004KT 10SM SCT026 BKN044 OVC075 13/12 A2997 RMK AO2
PAOH 161624Z AUTO 07003KT 10SM BKN026 OVC075 13/11 A2997 RMK AO2
PAOH 161556Z AUTO 10003KT 10SM FEW026 OVC041 13/12 A2997 RMK AO2 SLP148 T01280117
PAOH 161508Z AUTO 00000KT 10SM OVC031 12/12 A2997 RMK AO2
PAOH 161456Z AUTO 00000KT 10SM OVC029 12/11 A2997 RMK AO2 SLP149 T01170111 53003